Time;durP1;ratioP1;P1;durP2;ratioP2;P2;SDS_P1;SDS_P2;PMS_P1;PMS_P2;Temp;Humidity;BMP_temperature;BMP_pressure;BME280_temperature;BME280_humidity;BME280_pressure;Samples;Min_cycle;Max_cycle;Signal;HPM_P1;HPM_P2
2022/12/06 00:01:27;;;;;;;12.30;9.33;;;6.50;87.10;;;9.77;60.92;101773.69;5080831;28;20216;-57
2022/12/06 00:03:57;;;;;;;11.87;9.30;;;6.50;86.80;;;9.78;60.33;101767.44;5093713;28;20538;-56
2022/12/06 00:06:29;;;;;;;12.57;9.77;;;6.60;86.70;;;9.82;60.85;101768.81;5095292;28;20216;-55
2022/12/06 00:08:58;;;;;;;12.10;9.50;;;6.60;86.50;;;9.83;60.62;101762.59;5097878;28;20181;-57
2022/12/06 00:11:28;;;;;;;14.73;10.53;;;6.60;86.40;;;9.79;60.21;101763.84;5097335;28;20212;-55
2022/12/06 00:13:59;;;;;;;12.93;9.37;;;6.60;86.30;;;9.79;60.21;101766.50;5097411;28;20181;-56
2022/12/06 00:16:27;;;;;;;12.43;9.93;;;6.60;86.40;;;9.79;60.78;101764.69;5097736;28;20179;-57
2022/12/06 00:18:56;;;;;;;13.50;10.30;;;6.60;86.50;;;9.80;60.48;101761.06;5097226;28;20197;-57
2022/12/06 00:21:27;;;;;;;15.47;10.70;;;6.60;86.70;;;9.83;60.35;101765.22;5096779;28;20204;-57
2022/12/06 00:23:57;;;;;;;12.90;9.77;;;6.60;86.70;;;9.84;60.76;101756.38;5097243;28;20192;-58
2022/12/06 00:26:26;;;;;;;15.07;11.10;;;6.70;87.00;;;9.86;61.08;101759.69;5097934;28;20180;-57
2022/12/06 00:28:57;;;;;;;13.93;10.40;;;6.70;87.20;;;9.89;61.25;101759.41;5097077;28;20199;-57
2022/12/06 00:31:27;;;;;;;17.30;9.73;;;6.70;87.30;;;9.90;60.78;101761.88;5096818;28;20216;-56
2022/12/06 00:33:56;;;;;;;13.30;10.37;;;6.70;87.40;;;9.90;61.10;101761.03;5097313;28;20541;-56
2022/12/06 00:36:26;;;;;;;13.43;9.83;;;6.70;87.50;;;9.93;61.22;101756.34;5097017;28;20193;-54
2022/12/06 00:38:53;;;;;;;12.50;9.23;;;6.70;87.60;;;9.95;61.57;101757.00;5096197;28;20184;-56
2022/12/06 00:41:23;;;;;;;14.90;10.53;;;6.80;87.80;;;9.96;61.24;101757.84;5096925;28;20603;-56
2022/12/06 00:43:51;;;;;;;12.60;9.60;;;6.80;88.10;;;9.96;61.36;101757.84;5078870;28;20201;-56
2022/12/06 00:46:23;;;;;;;11.80;9.20;;;6.80;88.20;;;9.98;61.80;101758.53;5096187;28;20196;-54
2022/12/06 00:48:52;;;;;;;10.87;8.27;;;6.80;88.40;;;10.00;61.96;101757.41;5096758;28;20271;-58
2022/12/06 00:51:22;;;;;;;9.87;7.93;;;6.80;88.50;;;10.00;61.84;101762.66;5096299;28;20212;-57
2022/12/06 00:53:50;;;;;;;12.27;7.80;;;6.90;88.70;;;10.02;61.95;101758.09;5097427;28;20176;-56
2022/12/06 00:56:18;;;;;;;8.27;6.80;;;6.80;88.80;;;10.04;61.51;101752.66;5096292;28;20596;-56
2022/12/06 00:58:46;;;;;;;8.00;6.53;;;6.90;88.90;;;10.06;62.24;101755.97;5097124;28;20201;-56
2022/12/06 01:01:16;;;;;;;9.63;7.23;;;6.90;88.90;;;10.09;62.29;101750.44;5096245;28;20200;-57
2022/12/06 01:03:45;;;;;;;9.17;6.67;;;6.90;89.00;;;10.12;61.52;101755.44;5096660;28;20189;-56
2022/12/06 01:06:14;;;;;;;8.67;6.30;;;7.00;89.10;;;10.15;61.67;101752.50;5096937;28;20192;-57
2022/12/06 01:08:42;;;;;;;11.47;7.40;;;7.00;89.00;;;10.19;61.76;101756.50;5096554;28;20242;-55
2022/12/06 01:11:12;;;;;;;8.03;6.10;;;7.00;89.00;;;10.21;61.85;101759.81;5097035;28;20185;-57
2022/12/06 01:13:40;;;;;;;6.10;5.50;;;7.00;88.90;;;10.24;62.07;101758.69;5097455;28;20226;-55
2022/12/06 01:16:11;;;;;;;6.80;5.73;;;7.10;88.90;;;10.26;62.10;101752.31;5097445;28;20199;-58
2022/12/06 01:18:40;;;;;;;6.27;4.83;;;7.10;88.90;;;10.30;62.39;101752.81;5097420;28;20192;-58
2022/12/06 01:21:12;;;;;;;7.53;5.73;;;7.10;88.80;;;10.32;61.80;101746.44;5097649;28;20205;-57
2022/12/06 01:23:39;;;;;;;6.23;5.03;;;7.20;88.80;;;10.36;62.15;101747.84;5097731;28;20200;-57
2022/12/06 01:26:13;;;;;;;6.90;5.23;;;7.20;88.70;;;10.40;62.07;101741.28;5098286;28;20199;-57
2022/12/06 01:28:40;;;;;;;5.90;4.90;;;7.20;88.50;;;10.42;61.79;101749.84;5099417;28;20227;-57
2022/12/06 01:31:08;;;;;;;6.47;5.73;;;7.30;88.30;;;10.43;61.53;101743.63;5101775;28;20200;-58
2022/12/06 01:33:35;;;;;;;5.47;4.97;;;7.30;88.20;;;10.46;61.84;101743.31;5101366;28;20188;-57
2022/12/06 01:36:02;;;;;;;5.97;5.20;;;7.40;88.20;;;10.48;61.60;101741.38;5100448;28;20196;-56
2022/12/06 01:38:31;;;;;;;7.20;5.87;;;7.40;87.90;;;10.51;61.90;101743.69;5099447;28;20557;-57
2022/12/06 01:40:58;;;;;;;6.40;5.20;;;7.40;87.80;;;10.51;62.09;101745.50;5099963;28;20243;-57
2022/12/06 01:43:35;;;;;;;6.80;5.20;;;7.40;87.80;;;10.50;61.29;101736.78;5099952;28;20209;-56
2022/12/06 01:46:11;;;;;;;6.50;5.27;;;7.40;87.50;;;10.51;61.87;101745.50;5098378;28;20253;-57
2022/12/06 01:48:40;;;;;;;4.93;4.43;;;7.40;87.40;;;10.50;61.90;101739.41;5098931;28;20277;-57
2022/12/06 01:51:12;;;;;;;5.97;5.10;;;7.50;87.40;;;10.53;61.43;101738.31;5098253;28;20211;-57
2022/12/06 01:53:44;;;;;;;6.87;5.50;;;7.40;87.10;;;10.52;61.45;101737.47;5096978;28;20234;-57
2022/12/06 01:56:12;;;;;;;7.03;5.93;;;7.50;87.30;;;10.53;61.57;101738.31;5077444;28;20210;-56
2022/12/06 01:58:43;;;;;;;6.27;5.07;;;7.50;87.30;;;10.55;61.09;101741.59;5093580;28;20196;-58
2022/12/06 02:01:11;;;;;;;6.30;5.17;;;7.50;87.30;;;10.54;61.20;101743.41;5096249;28;20253;-57
2022/12/06 02:03:39;;;;;;;6.00;5.00;;;7.50;87.40;;;10.55;61.78;101739.81;5096486;28;20198;-56
2022/12/06 02:06:08;;;;;;;6.60;5.43;;;7.50;87.30;;;10.55;61.15;101737.19;5096117;28;20188;-59
2022/12/06 02:08:37;;;;;;;6.53;5.93;;;7.50;87.30;;;10.54;61.72;101734.66;5096604;28;20216;-58
2022/12/06 02:11:07;;;;;;;7.43;6.03;;;7.50;87.30;;;10.53;61.61;101736.47;5096071;28;20250;-57
2022/12/06 02:13:36;;;;;;;5.53;5.03;;;7.50;87.30;;;10.54;61.46;101732.88;5095971;28;20192;-56
2022/12/06 02:16:25;;;;;;;7.07;5.83;;;7.50;87.30;;;10.53;61.31;101733.84;5096173;28;20197;-57
2022/12/06 02:18:59;;;;;;;6.60;5.57;;;7.50;87.10;;;10.54;61.50;101730.25;5096306;28;20177;-55
2022/12/06 02:21:40;;;;;;;8.03;5.93;;;7.50;87.20;;;10.53;61.47;101735.66;5095841;28;20212;-57
2022/12/06 02:25:03;;;;;;;6.23;5.43;;;7.50;87.10;;;10.49;61.77;101727.22;5096632;28;20204;-57
2022/12/06 02:28:24;;;;;;;8.57;6.00;;;7.50;87.10;;;10.47;61.27;101723.91;5093806;28;20323;-56
2022/12/06 02:30:58;;;;;;;7.03;6.10;;;7.50;86.90;;;10.50;61.22;101723.63;5053620;28;20677;-59
2022/12/06 02:33:38;;;;;;;8.17;5.53;;;7.50;86.80;;;10.50;61.61;101723.63;5094774;28;20228;-57
2022/12/06 02:36:16;;;;;;;7.63;6.40;;;7.50;87.00;;;10.52;61.39;101728.72;5096120;28;20177;-57
2022/12/06 02:38:47;;;;;;;7.73;6.27;;;7.50;87.00;;;10.51;61.05;101720.00;5096345;28;20179;-59
2022/12/06 02:41:23;;;;;;;8.27;6.13;;;7.40;87.00;;;10.52;61.34;101716.41;5095096;28;20199;-57
2022/12/06 02:43:59;;;;;;;7.17;6.07;;;7.50;87.20;;;10.53;61.65;101717.25;5094601;28;20215;-57
2022/12/06 02:46:33;;;;;;;7.97;6.13;;;7.50;87.20;;;10.53;61.54;101714.63;5094020;28;20192;-56
2022/12/06 02:49:05;;;;;;;8.70;7.00;;;7.50;87.10;;;10.53;61.61;101715.41;5094970;28;20227;-55
2022/12/06 02:51:36;;;;;;;8.07;5.93;;;7.50;87.00;;;10.53;60.97;101712.78;5094517;28;20614;-56
2022/12/06 02:54:08;;;;;;;7.10;5.40;;;7.50;87.00;;;10.53;61.45;101712.78;5094355;28;20185;-55
2022/12/06 02:56:36;;;;;;;7.60;5.27;;;7.50;87.10;;;10.53;61.18;101707.50;5094069;28;20653;-57
2022/12/06 02:59:04;;;;;;;6.23;4.93;;;7.50;87.30;;;10.54;61.10;101703.09;5094419;28;20726;-56
2022/12/06 03:01:39;;;;;;;6.77;5.23;;;7.40;87.20;;;10.55;60.96;101710.03;5093897;28;20253;-55
2022/12/06 03:04:45;;;;;;;6.33;5.03;;;7.50;87.20;;;10.55;61.42;101710.03;5094686;28;20180;-55
2022/12/06 03:07:36;;;;;;;6.63;4.53;;;7.50;87.10;;;10.53;61.26;101704.88;5094233;28;20187;-57
2022/12/06 03:10:28;;;;;;;7.17;5.20;;;7.50;87.00;;;10.54;61.08;101719.72;5094186;28;20594;-59
2022/12/06 03:13:20;;;;;;;6.27;5.13;;;7.50;86.70;;;10.55;60.96;101710.03;5093958;28;20229;-55
2022/12/06 03:15:58;;;;;;;5.47;4.60;;;7.50;86.80;;;10.56;60.81;101712.50;5094410;28;20328;-57
2022/12/06 03:18:36;;;;;;;7.53;5.27;;;7.50;86.80;;;10.56;60.89;101712.50;5093288;28;20180;-57
2022/12/06 03:21:09;;;;;;;6.17;4.83;;;7.50;86.80;;;10.56;61.50;101712.50;5093741;28;20192;-53
2022/12/06 03:23:40;;;;;;;5.70;4.50;;;7.50;86.80;;;10.57;61.29;101714.16;5093958;28;20177;-55
2022/12/06 03:26:15;;;;;;;5.60;4.90;;;7.50;86.90;;;10.58;61.51;101714.97;5094125;28;20197;-57
2022/12/06 03:28:47;;;;;;;7.60;5.40;;;7.50;87.00;;;10.60;61.52;101719.09;5093992;28;20257;-57
2022/12/06 03:31:15;;;;;;;5.93;4.97;;;7.50;86.80;;;10.60;61.32;101719.09;5093617;28;20193;-56
2022/12/06 03:33:51;;;;;;;5.70;5.07;;;7.50;86.80;;;10.60;60.80;101719.09;5094076;28;20647;-57
2022/12/06 03:36:20;;;;;;;5.30;4.20;;;7.50;86.80;;;10.62;60.88;101718.97;5094099;28;20196;-55
2022/12/06 03:38:54;;;;;;;6.00;4.70;;;7.60;86.90;;;10.62;61.31;101717.16;5093236;28;20622;-57
2022/12/06 03:41:29;;;;;;;7.17;4.70;;;7.50;86.60;;;10.61;60.81;101709.41;5093363;28;20220;-57
2022/12/06 03:43:58;;;;;;;6.37;5.40;;;7.50;86.60;;;10.62;61.30;101708.44;5094309;28;20254;-57
2022/12/06 03:46:32;;;;;;;6.80;5.73;;;7.60;86.50;;;10.62;61.17;101711.91;5092082;28;20584;-54
2022/12/06 03:49:08;;;;;;;5.43;4.93;;;7.60;86.50;;;10.63;60.69;101716.16;5094372;28;20218;-57
2022/12/06 03:51:38;;;;;;;6.97;5.87;;;7.60;86.20;;;10.64;60.68;101709.94;5093770;28;20253;-56
2022/12/06 03:54:07;;;;;;;5.97;4.83;;;7.60;86.30;;;10.63;60.90;101708.28;5093669;28;20192;-56
2022/12/06 03:56:36;;;;;;;5.90;5.30;;;7.60;86.00;;;10.63;61.06;101710.06;5093661;28;20192;-55
2022/12/06 03:59:04;;;;;;;8.10;5.83;;;7.60;86.00;;;10.63;60.56;101710.91;5073461;28;20189;-56
2022/12/06 04:01:31;;;;;;;6.17;5.57;;;7.60;86.00;;;10.62;60.92;101711.91;5073371;28;20258;-55
2022/12/06 04:03:58;;;;;;;8.00;5.70;;;7.60;86.00;;;10.64;60.44;101714.38;5073508;28;20193;-59
2022/12/06 04:06:27;;;;;;;7.50;5.80;;;7.60;85.90;;;10.64;61.03;101709.09;5073137;28;20724;-58
2022/12/06 04:09:51;;;;;;;6.67;5.83;;;7.60;85.90;;;10.65;60.48;101703.69;5072802;28;20630;-58
2022/12/06 04:11:41;;;;;;;8.63;6.20;;;7.60;85.80;;;10.64;61.08;101707.31;5072938;28;20217;-56
2022/12/06 04:14:08;;;;;;;6.50;4.97;;;7.60;85.80;;;10.66;60.13;101701.88;5073278;28;20650;-56
2022/12/06 04:19:21;;;;;;;8.63;5.30;;;7.60;85.60;;;10.66;60.91;101697.44;5073291;28;20702;-57
2022/12/06 04:24:35;;;;;;;6.20;5.43;;;7.60;85.40;;;10.66;60.45;101697.44;5077093;28;20190;-54
2022/12/06 04:40:51;;;;;;;7.07;6.40;;;7.60;85.30;;;10.61;59.95;101688.34;5072728;28;20235;-56
2022/12/06 04:44:00;;;;;;;7.53;6.17;;;7.60;85.10;;;10.63;60.34;101686.38;5071286;28;20224;-57
2022/12/06 04:46:08;;;;;;;6.87;5.83;;;7.60;85.10;;;10.61;60.09;101683.91;5072794;28;20281;-55
2022/12/06 04:48:36;;;;;;;6.77;6.03;;;7.60;84.90;;;10.61;60.16;101681.28;5092788;28;20299;-55
2022/12/06 04:51:03;;;;;;;8.80;5.93;;;7.60;84.70;;;10.60;59.53;101682.25;5092564;28;20550;-57
2022/12/06 04:53:32;;;;;;;7.23;6.17;;;7.60;84.70;;;10.58;59.45;101678.94;5095935;28;20201;-56
2022/12/06 04:56:00;;;;;;;6.70;6.00;;;7.50;84.50;;;10.58;59.59;101680.75;5096702;28;20222;-58
2022/12/06 04:58:27;;;;;;;6.63;5.63;;;7.50;84.60;;;10.58;60.14;101683.38;5096498;28;20192;-55
2022/12/06 05:00:54;;;;;;;7.57;5.80;;;7.50;84.50;;;10.58;59.52;101673.69;5096145;28;20548;-56
2022/12/06 05:03:21;;;;;;;5.83;5.23;;;7.50;84.30;;;10.60;60.05;101676.97;5096384;28;20208;-55
2022/12/06 05:05:49;;;;;;;8.90;7.30;;;7.50;84.60;;;10.62;60.08;101676.84;5096562;28;20250;-54
2022/12/06 05:08:16;;;;;;;7.73;6.50;;;7.50;84.40;;;10.62;59.81;101680.31;5097641;28;20266;-56
2022/12/06 05:10:48;;;;;;;7.30;6.33;;;7.50;84.20;;;10.64;59.43;101677.53;5101284;28;20200;-56
2022/12/06 05:13:16;;;;;;;8.00;6.13;;;7.50;85.00;;;10.62;59.96;101675.06;5096177;28;20254;-58
2022/12/06 05:15:50;;;;;;;6.20;5.60;;;7.60;84.40;;;10.61;59.28;101670.75;5096241;28;20197;-55
2022/12/06 05:18:17;;;;;;;7.80;6.30;;;7.50;84.40;;;10.62;59.77;101672.41;5096393;28;20184;-55
2022/12/06 05:20:45;;;;;;;7.97;6.93;;;7.50;84.40;;;10.63;59.32;101676.69;5096138;28;20192;-56
2022/12/06 05:23:12;;;;;;;7.40;6.60;;;7.50;84.40;;;10.61;59.43;101672.53;5096334;28;20209;-55
2022/12/06 05:25:40;;;;;;;7.80;6.57;;;7.50;84.50;;;10.61;59.48;101668.13;5096209;28;20192;-54
2022/12/06 05:28:09;;;;;;;7.27;6.57;;;7.50;84.50;;;10.59;59.79;101675.34;5096024;28;20228;-55
2022/12/06 05:30:36;;;;;;;7.73;6.93;;;7.50;84.50;;;10.58;59.81;101673.69;5095987;28;20189;-56
2022/12/06 05:33:03;;;;;;;7.40;6.07;;;7.50;84.60;;;10.58;59.18;101678.09;5096420;28;20216;-56
2022/12/06 05:35:30;;;;;;;7.27;6.13;;;7.50;84.50;;;10.55;59.17;101679.25;5096205;28;20188;-57
2022/12/06 05:37:57;;;;;;;8.07;6.97;;;7.50;84.50;;;10.55;59.36;101673.16;5095440;28;20188;-56
2022/12/06 05:40:24;;;;;;;7.90;6.67;;;7.50;84.40;;;10.53;59.09;101665.41;5095900;28;20218;-57
2022/12/06 05:42:51;;;;;;;7.07;6.33;;;7.50;84.40;;;10.52;59.95;101674.28;5096270;28;20680;-56
2022/12/06 05:45:19;;;;;;;8.13;6.30;;;7.40;84.60;;;10.51;60.01;101667.38;5094215;28;20249;-54
2022/12/06 05:47:46;;;;;;;7.07;6.07;;;7.40;85.30;;;10.50;59.69;101668.34;5075635;28;20201;-57
2022/12/06 05:50:13;;;;;;;8.13;6.43;;;7.40;84.50;;;10.50;59.45;101665.72;5075272;28;20213;-58
2022/12/06 05:52:40;;;;;;;8.97;7.60;;;7.40;84.60;;;10.51;60.03;101667.38;5075090;28;20609;-55
2022/12/06 05:55:08;;;;;;;8.97;7.03;;;7.40;84.70;;;10.52;59.83;101669.03;5085843;28;20207;-58
2022/12/06 05:57:35;;;;;;;11.63;8.77;;;7.40;84.80;;;10.53;59.73;101665.41;5095674;28;20206;-56
2022/12/06 06:00:05;;;;;;;10.13;8.03;;;7.40;85.00;;;10.51;59.63;101671.78;5094846;28;20188;-59
2022/12/06 06:02:33;;;;;;;9.63;7.77;;;7.40;84.90;;;10.50;59.87;101671.00;5096262;28;20262;-58
2022/12/06 06:05:00;;;;;;;12.37;8.17;;;7.40;85.00;;;10.49;60.21;101669.31;5095691;28;20228;-56
2022/12/06 06:07:28;;;;;;;8.93;7.10;;;7.40;85.20;;;10.48;59.50;101682.66;5096553;28;20189;-57
2022/12/06 06:09:55;;;;;;;8.93;7.67;;;7.40;85.30;;;10.46;59.79;101669.63;5098041;28;20212;-58
2022/12/06 06:12:22;;;;;;;11.87;9.00;;;7.40;85.30;;;10.46;59.85;101677.50;5096924;28;20208;-57
2022/12/06 06:14:49;;;;;;;10.17;8.17;;;7.40;85.60;;;10.48;60.39;101680.00;5096951;28;20200;-57
2022/12/06 06:17:16;;;;;;;9.17;7.73;;;7.40;85.80;;;10.50;60.09;101675.41;5097057;28;20603;-57
2022/12/06 06:19:45;;;;;;;9.03;7.20;;;7.40;86.60;;;10.50;60.56;101676.25;5095576;28;20193;-55
2022/12/06 06:22:18;;;;;;;9.93;8.03;;;7.40;85.80;;;10.51;59.85;101677.88;5095461;28;20223;-57
2022/12/06 06:24:46;;;;;;;10.00;7.97;;;7.40;85.80;;;10.52;59.90;101678.72;5095430;28;20195;-58
2022/12/06 06:27:13;;;;;;;8.13;6.73;;;7.40;85.80;;;10.51;60.39;101683.16;5095900;28;20193;-58
2022/12/06 06:29:40;;;;;;;10.90;7.80;;;7.40;85.60;;;10.51;60.50;101687.59;5095457;28;20212;-55
2022/12/06 06:32:12;;;;;;;9.43;8.27;;;7.40;85.60;;;10.49;60.07;101679.84;5095958;28;20273;-59
2022/12/06 06:34:39;;;;;;;11.00;9.07;;;7.40;85.80;;;10.51;60.79;101675.25;5094334;28;20196;-56
2022/12/06 06:37:07;;;;;;;10.33;8.70;;;7.40;85.90;;;10.53;60.13;101677.75;5094429;28;20284;-60
2022/12/06 06:39:34;;;;;;;13.73;12.20;;;7.50;85.80;;;10.53;60.09;101675.94;5093387;28;20188;-58
2022/12/06 06:42:01;;;;;;;9.60;7.90;;;7.50;85.90;;;10.54;60.12;101680.22;5094669;28;20212;-56
2022/12/06 06:44:28;;;;;;;10.07;8.40;;;7.40;85.80;;;10.54;60.51;101679.41;5094418;28;20215;-56
2022/12/06 06:46:55;;;;;;;10.73;7.97;;;7.50;85.90;;;10.54;60.72;101682.88;5094539;28;20727;-57
2022/12/06 06:49:23;;;;;;;9.43;8.00;;;7.50;85.90;;;10.53;60.48;101686.47;5093777;28;20574;-57
2022/12/06 06:51:50;;;;;;;8.37;7.47;;;7.40;85.90;;;10.55;60.93;101684.53;5094849;28;20204;-57
2022/12/06 06:54:19;;;;;;;10.47;8.40;;;7.50;85.90;;;10.54;60.02;101685.50;5095190;28;20212;-55
2022/12/06 06:56:45;;;;;;;10.17;8.97;;;7.50;85.70;;;10.55;60.46;101687.16;5095787;28;20208;-58
2022/12/06 06:59:12;;;;;;;8.00;7.17;;;7.50;85.70;;;10.55;60.64;101688.97;5096238;28;20218;-56
2022/12/06 07:01:40;;;;;;;9.23;7.77;;;7.50;85.80;;;10.56;60.25;101691.44;5094010;28;20216;-57
2022/12/06 07:04:07;;;;;;;9.20;8.03;;;7.50;86.10;;;10.56;60.17;101683.53;5094276;28;20192;-57
2022/12/06 07:06:34;;;;;;;8.90;7.63;;;7.50;85.60;;;10.56;60.11;101691.44;5094559;28;20197;-58
2022/12/06 07:09:01;;;;;;;10.00;8.23;;;7.50;85.50;;;10.55;60.38;101695.06;5093442;28;20212;-56
2022/12/06 07:11:29;;;;;;;9.63;8.10;;;7.40;85.30;;;10.55;60.42;101695.06;5093350;28;20293;-58
2022/12/06 07:13:56;;;;;;;10.10;8.60;;;7.50;85.90;;;10.56;60.52;101698.50;5094177;28;20523;-56
2022/12/06 07:16:23;;;;;;;10.13;8.47;;;7.50;85.80;;;10.58;60.78;101700.00;5093531;28;20195;-55
2022/12/06 07:18:50;;;;;;;10.80;8.73;;;7.50;85.80;;;10.61;60.75;101701.50;5093842;28;20187;-55
2022/12/06 07:21:17;;;;;;;10.40;8.40;;;7.50;85.60;;;10.61;60.58;101698.88;5093970;28;20216;-56
2022/12/06 07:23:44;;;;;;;10.13;8.33;;;7.50;85.10;;;10.59;60.50;101699.03;5094399;28;20254;-55
2022/12/06 07:26:14;;;;;;;11.27;8.60;;;7.50;85.30;;;10.61;60.01;101698.88;5094484;28;20241;-58
2022/12/06 07:28:45;;;;;;;13.40;8.23;;;7.50;85.20;;;10.61;60.52;101704.13;5093741;28;20192;-56
2022/12/06 07:31:15;;;;;;;10.83;9.00;;;7.50;85.30;;;10.63;60.56;101696.91;5092280;28;20212;-57
2022/12/06 07:33:43;;;;;;;10.37;9.27;;;7.50;85.40;;;10.66;59.84;101707.16;5093293;28;20331;-58
2022/12/06 07:36:12;;;;;;;10.33;8.47;;;7.50;85.10;;;10.67;60.14;101704.34;5093359;28;20192;-65
2022/12/06 07:38:42;;;;;;;11.33;9.23;;;7.60;84.90;;;10.68;60.12;101711.28;5093427;28;20189;-55
2022/12/06 07:46:47;;;;;;;10.27;7.77;;;7.60;84.30;;;10.66;60.09;101707.16;5088290;28;20211;-58
2022/12/06 07:49:16;;;;;;;14.20;9.60;;;7.60;84.50;;;10.67;60.00;101709.63;5093896;28;20321;-57
2022/12/06 07:51:44;;;;;;;11.37;9.37;;;7.60;84.90;;;10.71;60.19;101705.72;5093296;28;20220;-58
2022/12/06 07:54:12;;;;;;;11.33;8.93;;;7.60;84.50;;;10.73;59.53;101711.66;5093655;28;20193;-57
2022/12/06 07:56:40;;;;;;;11.53;9.23;;;7.60;84.20;;;10.73;59.64;101705.56;5093318;28;20269;-56
2022/12/06 07:59:08;;;;;;;9.90;7.97;;;7.60;83.70;;;10.71;59.30;101708.34;5092778;28;20209;-58
2022/12/06 08:01:36;;;;;;;9.70;8.43;;;7.60;83.50;;;10.70;59.15;101704.06;5092533;28;20217;-56
2022/12/06 08:04:05;;;;;;;12.27;8.43;;;7.60;83.20;;;10.69;59.06;101710.31;5093874;28;20189;-58
2022/12/06 08:06:33;;;;;;;9.80;8.33;;;7.60;83.70;;;10.69;59.55;101712.13;5093575;28;20683;-56
2022/12/06 08:09:00;;;;;;;11.63;9.00;;;7.60;83.70;;;10.72;59.23;101707.38;5093329;28;20263;-58
2022/12/06 08:11:28;;;;;;;10.17;8.33;;;7.60;84.20;;;10.74;59.55;101712.50;5093878;28;20386;-54
2022/12/06 08:13:55;;;;;;;12.50;8.93;;;7.60;84.10;;;10.79;59.60;101718.94;5093180;28;20544;-58
2022/12/06 08:16:24;;;;;;;9.73;8.37;;;7.70;84.00;;;10.80;58.68;101715.34;5093462;28;20592;-57
2022/12/06 08:18:51;;;;;;;12.37;9.10;;;7.70;83.20;;;10.78;58.73;101719.94;5095113;28;20196;-57
2022/12/06 08:21:18;;;;;;;11.40;8.97;;;7.70;83.00;;;10.78;59.08;101724.38;5094738;28;20209;-56
2022/12/06 08:23:45;;;;;;;12.27;9.50;;;7.70;83.10;;;10.78;58.87;101724.38;5093031;28;20227;-55
2022/12/06 08:26:17;;;;;;;10.37;8.83;;;7.70;82.90;;;10.73;58.55;101719.56;5093086;28;20298;-55
2022/12/06 08:28:45;;;;;;;11.37;9.23;;;7.70;82.90;;;10.72;58.59;101723.16;5097352;28;20240;-57
2022/12/06 08:31:15;;;;;;;13.93;11.40;;;7.60;82.40;;;10.69;58.55;101717.38;5098815;28;20669;-55
2022/12/06 08:33:46;;;;;;;15.77;10.67;;;7.60;82.40;;;10.68;58.98;101721.81;5098118;28;20494;-59
2022/12/06 08:36:18;;;;;;;12.23;8.27;;;7.60;83.40;;;10.68;58.21;101721.81;5100597;28;20196;-56
2022/12/06 08:38:46;;;;;;;11.27;9.00;;;7.60;82.40;;;10.68;58.29;101724.44;5100073;28;20196;-56
2022/12/06 08:44:02;;;;;;;21.90;16.00;;;7.60;83.00;;;10.73;58.66;101726.63;5098867;28;20302;-58
2022/12/06 08:46:34;;;;;;;11.00;9.70;;;7.60;84.00;;;10.77;58.46;101720.91;5098248;28;20200;-58
2022/12/06 08:49:03;;;;;;;10.37;9.23;;;7.60;82.80;;;10.80;58.17;101728.50;5097820;28;20226;-55
2022/12/06 08:51:33;;;;;;;11.03;8.90;;;7.70;82.70;;;10.83;58.45;101720.31;5096657;28;20311;-55
2022/12/06 08:54:01;;;;;;;11.00;9.43;;;7.70;82.50;;;10.87;58.83;101721.66;5096127;28;20189;-58
2022/12/06 08:56:28;;;;;;;10.80;8.40;;;7.70;83.20;;;10.91;58.19;101731.91;5097104;28;20192;-57
2022/12/06 08:58:55;;;;;;;13.13;10.57;;;7.80;82.50;;;10.94;57.94;101731.56;5097448;28;20249;-57
2022/12/06 09:01:26;;;;;;;11.87;9.90;;;7.80;82.00;;;10.94;58.12;101726.31;5098714;28;20212;-57
2022/12/06 09:03:59;;;;;;;13.33;9.07;;;7.80;81.50;;;10.93;57.49;101724.66;5097013;28;20223;-55
2022/12/06 09:06:28;;;;;;;15.23;9.97;;;7.80;81.30;;;10.91;57.34;101724.00;5098079;28;20207;-57
2022/12/06 09:08:57;;;;;;;14.27;10.10;;;7.80;81.20;;;10.91;57.50;101716.91;5097625;28;20196;-57
2022/12/06 09:11:25;;;;;;;12.30;9.50;;;7.80;81.50;;;10.97;57.70;101715.47;5096366;28;20212;-54
2022/12/06 09:13:52;;;;;;;14.37;10.67;;;7.80;81.70;;;11.02;57.30;101723.75;5096261;28;20188;-57
2022/12/06 09:16:22;;;;;;;11.07;8.53;;;7.80;81.60;;;11.05;57.34;101723.44;5097200;28;20207;-59
2022/12/06 09:18:50;;;;;;;9.20;7.10;;;7.80;81.00;;;11.05;56.83;101718.19;5097242;28;20536;-56
2022/12/06 09:21:20;;;;;;;11.67;7.80;;;7.80;81.00;;;11.04;56.72;101724.41;5098131;28;20215;-57
2022/12/06 09:23:50;;;;;;;10.27;8.40;;;7.80;80.60;;;11.02;57.17;101723.75;5101667;28;20180;-56
2022/12/06 09:26:17;;;;;;;17.10;7.87;;;7.90;80.60;;;11.01;56.72;101727.34;5096794;28;20191;-55
2022/12/06 09:28:49;;;;;;;9.93;8.43;;;7.80;80.30;;;11.01;56.85;101722.06;5096349;28;20246;-55
2022/12/06 09:31:18;;;;;;;10.77;8.17;;;7.90;81.60;;;11.09;57.30;101724.78;5095590;28;20228;-55
2022/12/06 09:33:45;;;;;;;9.43;7.23;;;7.90;81.70;;;11.16;57.18;101728.47;5096178;28;20204;-57
2022/12/06 09:36:18;;;;;;;10.60;7.47;;;8.00;80.90;;;11.20;56.28;101724.53;5096966;28;20200;-57
2022/12/06 09:38:54;;;;;;;9.07;6.97;;;8.00;79.70;;;11.24;56.20;101728.53;5096946;28;20192;-59
2022/12/06 09:42:14;;;;;;;9.63;7.20;;;8.00;80.10;;;11.20;56.37;101722.72;5095898;28;20261;-55
2022/12/06 09:45:23;;;;;;;8.80;6.93;;;8.10;79.50;;;11.15;55.97;101725.00;5068936;28;20264;-58
2022/12/06 09:48:33;;;;;;;9.47;7.87;;;8.10;79.70;;;11.13;55.67;101731.38;5056762;28;20270;-58
2022/12/06 09:51:16;;;;;;;12.43;7.23;;;8.00;79.00;;;11.18;55.85;101729.97;5075099;28;20225;-57
2022/12/06 09:54:10;;;;;;;9.07;7.50;;;8.00;79.00;;;11.18;55.36;101729.97;5074502;28;20630;-55
2022/12/06 09:56:46;;;;;;;9.50;7.23;;;8.10;78.40;;;11.20;55.91;101729.78;5076047;28;20169;-58
2022/12/06 09:59:26;;;;;;;8.33;6.53;;;8.00;78.40;;;11.21;55.84;101723.56;5076037;28;20193;-58
2022/12/06 10:02:22;;;;;;;8.93;6.03;;;8.10;78.40;;;11.17;55.00;101722.22;5090572;28;20246;-56
2022/12/06 10:05:19;;;;;;;10.20;6.50;;;8.00;77.90;;;11.16;55.32;101725.81;5096211;28;20548;-56
2022/12/06 10:08:01;;;;;;;9.20;7.47;;;8.00;77.60;;;11.18;54.93;101732.59;5097635;28;20647;-58
2022/12/06 10:10:50;;;;;;;9.43;5.27;;;8.00;78.20;;;11.21;55.10;101718.28;5096389;28;20217;-59
2022/12/06 10:13:33;;;;;;;6.83;5.20;;;8.10;78.50;;;11.26;55.43;101729.19;5097214;28;20700;-56
2022/12/06 10:16:14;;;;;;;8.70;6.27;;;8.10;78.00;;;11.28;54.84;101725.44;5097307;28;20196;-58
2022/12/06 10:19:07;;;;;;;7.87;6.30;;;8.10;78.10;;;11.30;54.68;101722.63;5099209;28;20703;-58
2022/12/06 10:21:48;;;;;;;7.57;5.67;;;8.10;78.20;;;11.33;54.89;101715.25;5100879;28;20246;-58
2022/12/06 10:24:41;;;;;;;6.80;5.67;;;8.20;78.60;;;11.36;55.12;101717.56;5095037;28;20250;-55
2022/12/06 10:27:13;;;;;;;8.83;6.23;;;8.20;78.00;;;11.37;55.16;101711.31;5094660;28;20245;-57
2022/12/06 10:29:54;;;;;;;6.60;5.57;;;8.20;77.80;;;11.42;55.17;101710.84;5095153;28;20208;-55
2022/12/06 10:32:52;;;;;;;8.50;5.57;;;8.30;78.00;;;11.45;55.03;101700.84;5094680;28;20238;-55
2022/12/06 10:35:38;;;;;;;8.47;5.63;;;8.30;77.60;;;11.45;54.96;101694.72;5096791;28;20206;-58
2022/12/06 10:38:21;;;;;;;6.50;5.30;;;8.30;77.70;;;11.48;54.79;101697.84;5094127;28;20178;-56
2022/12/06 10:41:02;;;;;;;9.40;5.43;;;8.30;77.60;;;11.51;54.72;101699.34;5095120;28;20256;-55
2022/12/06 10:43:45;;;;;;;7.47;5.50;;;8.30;77.10;;;11.51;54.77;101694.91;5096272;28;20200;-57
2022/12/06 10:49:21;;;;;;;6.70;5.30;;;8.30;76.90;;;11.51;54.19;101704.63;5093761;28;20284;-57
2022/12/06 10:51:59;;;;;;;7.07;4.87;;;8.30;76.40;;;11.48;54.19;101699.69;5095118;28;20227;-57
2022/12/06 10:54:35;;;;;;;10.80;5.50;;;8.30;76.30;;;11.48;54.04;101699.69;5094320;28;20204;-56
2022/12/06 10:57:14;;;;;;;7.37;6.17;;;8.30;76.30;;;11.47;54.38;101692.75;5095547;28;20289;-57
2022/12/06 10:59:53;;;;;;;8.43;5.77;;;8.30;76.70;;;11.46;54.06;101688.44;5095255;28;20256;-56
2022/12/06 11:02:30;;;;;;;7.07;5.07;;;8.30;76.30;;;11.43;53.59;101696.69;5077112;28;20247;-57
2022/12/06 11:05:07;;;;;;;5.77;5.00;;;8.30;76.20;;;11.39;54.16;101685.63;5073816;28;20626;-57
2022/12/06 11:07:42;;;;;;;6.43;5.33;;;8.30;76.50;;;11.37;54.21;101687.59;5073848;28;20227;-58
2022/12/06 11:10:19;;;;;;;5.27;4.77;;;8.30;76.80;;;11.36;53.89;101680.66;5072905;28;20735;-56